WetterOnline ( http://www.wetteronline.de )

Wetter aktuell Aachen

Aktuelles Wetter: Aachen-Orsbach (231m)

6-stündlich | Neueste Meldungen
Ortszeit Temperatur Wetter
Mi, 16.01. 1:00 4.6° C Sprühregen
Di, 15.01. 19:00 5.2° C bedeckt
Di, 15.01. 13:00 5.9° C bewölkt
Di, 15.01. 7:00 2.9° C bewölkt
Di, 15.01. 1:00 1.4° C wolkig
Mo, 14.01. 19:00 1.9° C Sprühregen
Mo, 14.01. 13:00 4.8° C -
Mo, 14.01. 7:00 5.1° C -
Ortszeit Temperatur Wetter
Mi, 16.01. 3:00 4.3° C bedeckt
Mi, 16.01. 2:50 4.3° C bedeckt
Mi, 16.01. 2:40 4.3° C bewölkt
Mi, 16.01. 2:30 4.5° C Sprühregen
Mi, 16.01. 2:20 4.5° C Sprühregen
Mi, 16.01. 2:10 4.4° C bedeckt
Mi, 16.01. 2:00 4.5° C Sprühregen
Mi, 16.01. 1:30 4.5° C Sprühregen
Mi, 16.01. 1:00 4.6° C Sprühregen
Mi, 16.01. 0:30 4.8° C Sprühregen
Mi, 16.01. 0:00 4.8° C bedeckt
Ortszeit Relative Feuchte Sichtweite
Mi, 16.01. 1:00 94% 3.1 km
Di, 15.01. 19:00 85% 35 km
Di, 15.01. 13:00 74% 30 km
Di, 15.01. 7:00 91% 15 km
Di, 15.01. 1:00 92% 22 km
Mo, 14.01. 19:00 89% 6 km
Mo, 14.01. 13:00 83% 30 km
Mo, 14.01. 7:00 88% 23 km
Ortszeit Relative Feuchte Sichtweite
Mi, 16.01. 3:00 91% 19 km
Mi, 16.01. 2:50 91% -
Mi, 16.01. 2:40 93% -
Mi, 16.01. 2:30 92% 22 km
Mi, 16.01. 2:20 92% -
Mi, 16.01. 2:10 93% -
Mi, 16.01. 2:00 93% 7 km
Mi, 16.01. 1:30 93% 8 km
Mi, 16.01. 1:00 94% 3.1 km
Mi, 16.01. 0:30 92% 4.8 km
Mi, 16.01. 0:00 89% 30 km
Ortszeit Niederschlagsmenge Niederschlagsart
Mi, 16.01. 1:00 0.1 l/m2 in 6 Std. Regen
Di, 15.01. 19:00 0.1 l/m2 in 12 Std. Sprühregen
Di, 15.01. 13:00 0.1 l/m2 in 6 Std. Sprühregen
Di, 15.01. 7:00 0.2 l/m2 in 12 Std. Regen
Di, 15.01. 1:00 0.1 l/m2 in 6 Std. Regen
Mo, 14.01. 19:00 5 l/m2 in 12 Std. Schnee, Regen
Mo, 14.01. 13:00 5 l/m2 in 6 Std. Regen
Mo, 14.01. 7:00 0.4 l/m2 in 12 Std. -
Ortszeit Niederschlagsmenge Niederschlagsart
Mi, 16.01. 3:00 0.1 l/m2 in 1 Std. Sprühregen
Mi, 16.01. 2:50 keine Meldung -
Mi, 16.01. 2:40 keine Meldung -
Mi, 16.01. 2:30 0.1 l/m2 in 1 Std. -
Mi, 16.01. 2:20 keine Meldung -
Mi, 16.01. 2:10 keine Meldung -
Mi, 16.01. 2:00 0.1 l/m2 in 1 Std. Regen
Mi, 16.01. 1:30 0.1 l/m2 in 1 Std. -
Mi, 16.01. 1:00 0.1 l/m2 in 1 Std. Regen
Mi, 16.01. 0:30 0.1 l/m2 in 1 Std. -
Mi, 16.01. 0:00 0.0 l/m2 in 1 Std. -
Ortszeit Stärke Spitze Richtung
km/h Bft. km/h Grad Sektor
Mi, 16.01. 1:00 28 4 46 230° SW
Di, 15.01. 19:00 26 4 57 240° SW
Di, 15.01. 13:00 36 5 54 250° W
Di, 15.01. 7:00 19 3 28 230° SW
Di, 15.01. 1:00 13 3 24 240° SW
Mo, 14.01. 19:00 14 3 40 280° W
Mo, 14.01. 13:00 22 4 32 310° NW
Mo, 14.01. 7:00 - - - - -
Ortszeit Stärke Spitze Richtung
km/h Bft. km/h Grad Sektor
Mi, 16.01. 3:00 31 5 41 220° SW
Mi, 16.01. 2:50 31 5 - 220° SW
Mi, 16.01. 2:40 29 5 - 220° SW
Mi, 16.01. 2:30 30 5 39 220° SW
Mi, 16.01. 2:20 30 5 - 220° SW
Mi, 16.01. 2:10 26 4 - 220° SW
Mi, 16.01. 2:00 28 4 43 230° SW
Mi, 16.01. 1:30 25 4 36 230° SW
Mi, 16.01. 1:00 28 4 44 230° SW
Mi, 16.01. 0:30 26 4 39 230° SW
Mi, 16.01. 0:00 28 4 44 230° SW
Ortszeit Untergrenze Bedeckung Gattung
total tief tief mittel hoch
Mi, 16.01. 1:00 240 m 7/8 7/8 - - -
Di, 15.01. 19:00 900 m 8/8 8/8 - - -
Di, 15.01. 13:00 960 m 7/8 6/8 - - -
Di, 15.01. 7:00 480 m 7/8 7/8 - - -
Di, 15.01. 1:00 930 m 8/8 3/8 - - -
Mo, 14.01. 19:00 450 m 7/8 7/8 - - -
Mo, 14.01. 13:00 - - - - - -
Mo, 14.01. 7:00 - - - - - -
Ortszeit Bedeckungsgrad in Achtel und Wolkenuntergrenze
Mi, 16.01. 3:00 2(270m) 7(810m) 8(990m)
Mi, 16.01. 2:50 2(270m) 7(810m) 8(990m)
Mi, 16.01. 2:40 2(240m) 7(510m)
Mi, 16.01. 2:30 3(240m) 4(330m) 7(540m)
Mi, 16.01. 2:20 3(240m) 4(330m) 7(540m)
Mi, 16.01. 2:10 6(240m) 8(510m)
Mi, 16.01. 2:00 5(210m) 6(330m) 7(480m)
Mi, 16.01. 1:30 7(240m) 7(360m)
Mi, 16.01. 1:00 6(240m) 7(330m) 7(600m)
Mi, 16.01. 0:30 7(270m) 7(600m) 8(960m)
Mi, 16.01. 0:00 2(300m) 6(840m) 8(1050m)
Ortszeit Luftdruck NN (hPa) Tendenz (hPa in 3 Std.)
Mi, 16.01. 1:00 1017 - 1,1
Di, 15.01. 19:00 1019 - 0,3
Di, 15.01. 13:00 1020 - 1,0
Di, 15.01. 7:00 1021 - 1,1
Di, 15.01. 1:00 1022 + 0,4
Mo, 14.01. 19:00 1021 + 2,2
Mo, 14.01. 13:00 1016 + 2,3
Mo, 14.01. 7:00 1011 + 1,2
Ortszeit Luftdruck NN (hPa) Tendenz (hPa in 3 Std.)
Mi, 16.01. 3:00 1016 - 1,1
Mi, 16.01. 2:50 1016 keine Meldung
Mi, 16.01. 2:40 1016 keine Meldung
Mi, 16.01. 2:30 1016 - 1,4
Mi, 16.01. 2:20 1016 keine Meldung
Mi, 16.01. 2:10 1016 keine Meldung
Mi, 16.01. 2:00 1016 - 1,3
Mi, 16.01. 1:30 1017 - 1,3
Mi, 16.01. 1:00 1017 - 1,1
Mi, 16.01. 0:30 1017 - 1,0
Mi, 16.01. 0:00 1017 - 0,8
Ortszeit Schneehöhe (cm)
Mi, 16.01. 1:00 0
Di, 15.01. 19:00 0
Di, 15.01. 13:00 0
Di, 15.01. 7:00 0
Di, 15.01. 1:00 0
Mo, 14.01. 19:00 0
Mo, 14.01. 13:00 0
Mo, 14.01. 7:00 0
Ortszeit Schneehöhe (cm)
Mi, 16.01. 3:00 0
Mi, 16.01. 2:50 0
Mi, 16.01. 2:40 0
Mi, 16.01. 2:30 0
Mi, 16.01. 2:20 0
Mi, 16.01. 2:10 0
Mi, 16.01. 2:00 0
Mi, 16.01. 1:30 0
Mi, 16.01. 1:00 0
Mi, 16.01. 0:30 0
Mi, 16.01. 0:00 0
Link zu dieser Seite / Seite empfehlen

Das Wetter in ...